Terminal Aerodrome Forecast
Issued by NWS

Home | Current Version | Previous Version | Text Only | Print | Product List | Glossary On
Versions: 1 2 3 4 5 6 7 8 9 10 11 12 13
000
FTAK31 PANC 200537
TAFADQ
TAF
PADQ 200537Z 2006/2106 VRB03KT P6SM FEW050 BKN200
     FM200800 19010KT P6SM SCT040 BKN100
     FM201300 15010KT P6SM VCSH BKN040
     FM201800 15010KT 4SM -SN SCT010 OVC020
     FM210200 26009KT P6SM -SHSN SCT020 OVC035=

USA.gov is the U.S. government's official web portal to all federal, state and local government web resources and services.